Aeroporto :
LOGIN :

Iscrizione | Disclaimer

   EN    FR    IT 

 










Sommario :    VFR   VFR Marginale   IFR   IFR Intensivo   IFR Molto Intensivo
Visibilità : 
Base nubi : 
>= 8 km
>= 3000ft
5 / 8 km
1000 / 3000 ft
1500m / 5 km
500 / 1000 ft
800 / 1500m
200 / 500 ft
< 800m
< 200 ft
Simboli :   Temporali  Nebbia  Neve Forte  Precipitazioni Forti  Vento > 20 kt
SIGMETs :   Varie  Temporali  Ghiacco  Turbolenza  Onda orograficha  Ceneri Vulcaniche







- Altitudine del aeroporto : 2425 ft


ETHA - Altenstadt Army

ULTIMO METAR :
  • 140620Z 26005KT 9999 SHRA FEW010 SCT035TCU BKN060 14/14 Q1017 BLACKBLU BLU TEMPO WHT

METARs OBSOLETI :
  • 140541Z 25007KT 8000 SHRA FEW010 BKN035TCU BKN060 14/13 Q1016 BLACKBLU BLU TEMPO WHT
  • 140520Z 27006KT 8000 -SHRA FEW010 SCT035TCU BKN050 14/13 Q1016 RESHRA BLACKBLU BLU TEMPO WHT
  • 140506Z 28007KT 8000 SHRA SCT035TCU BKN050 14/13 Q1016 BLACKBLU BLU TEMPO WHT
  • 140436Z 27006KT 8000 -SHRA SCT035TCU BKN060 14/13 Q1015 RESHRA BLACKBLU BLU TEMPO WHT
  • 140420Z 27008KT 6000 SHRA SCT035TCU BKN060 14/13 Q1015 BLACKWHT BLU TEMPO WHT

TAF TAF ETHA
Valido dal 14 a 05 ore il 14 a 14 ore UTC


140415Z 1405/1414 27012KT 9999 NSW FEW030 BKN060 BKN100
TEMPO 1405/1412 27015KT 5000 SHRA SCT010 BKN020TCU
Nessun NOTAM noto per questo aeroporto.



MetMap, La meteo Aeronautica in un colpo d'occhio ! - Copyright ORBIFLY Dicembre 2007 - Disclaimer

ORBIFLY MET'MAP TEAM :

Programmazione e sviluppo : Alexandra Zaïnal
Concezione e sviluppo : Baudouin d'Aumeries
Co-Programmazione e sviluppo : Marc-Olivier Méhu
Supporto tecnico e logistico : Manuel Goepfert
Aiuto per la traduzione : Arnaldo La Scala

Contatto : metmap@orbifly.com




FONTI E CREDITI :

   NOAA